sensor_id;sensor_type;location;lat;lon;timestamp;P1;durP1;ratioP1;P2;durP2;ratioP2
26201;SDS011;13944;28.562;77.188;2022-09-30T00:01:02;114.88;;;86.47;;
26201;SDS011;13944;28.562;77.188;2022-09-30T00:03:29;124.43;;;87.30;;
26201;SDS011;13944;28.562;77.188;2022-09-30T00:05:56;121.63;;;86.90;;
26201;SDS011;13944;28.562;77.188;2022-09-30T00:08:23;120.93;;;87.40;;
26201;SDS011;13944;28.562;77.188;2022-09-30T00:10:59;127.88;;;85.32;;
26201;SDS011;13944;28.562;77.188;2022-09-30T00:13:28;117.85;;;87.63;;
26201;SDS011;13944;28.562;77.188;2022-09-30T00:15:54;123.40;;;88.05;;
26201;SDS011;13944;28.562;77.188;2022-09-30T00:18:21;118.22;;;87.53;;
26201;SDS011;13944;28.562;77.188;2022-09-30T00:20:47;140.32;;;92.05;;
26201;SDS011;13944;28.562;77.188;2022-09-30T00:23:14;128.90;;;91.60;;
26201;SDS011;13944;28.562;77.188;2022-09-30T00:25:40;133.55;;;90.38;;
26201;SDS011;13944;28.562;77.188;2022-09-30T00:28:07;128.75;;;90.13;;
26201;SDS011;13944;28.562;77.188;2022-09-30T00:30:33;123.05;;;89.43;;
26201;SDS011;13944;28.562;77.188;2022-09-30T00:33:00;137.30;;;89.57;;
26201;SDS011;13944;28.562;77.188;2022-09-30T00:35:26;128.93;;;89.72;;
26201;SDS011;13944;28.562;77.188;2022-09-30T00:37:53;134.48;;;91.10;;
26201;SDS011;13944;28.562;77.188;2022-09-30T00:40:20;131.75;;;89.40;;
26201;SDS011;13944;28.562;77.188;2022-09-30T00:42:47;161.77;;;92.25;;
26201;SDS011;13944;28.562;77.188;2022-09-30T00:45:14;139.90;;;91.10;;
26201;SDS011;13944;28.562;77.188;2022-09-30T00:52:49;142.30;;;94.05;;
26201;SDS011;13944;28.562;77.188;2022-09-30T00:55:24;144.13;;;92.60;;
26201;SDS011;13944;28.562;77.188;2022-09-30T00:57:52;140.15;;;91.90;;
26201;SDS011;13944;28.562;77.188;2022-09-30T01:00:19;136.20;;;92.85;;
26201;SDS011;13944;28.562;77.188;2022-09-30T01:02:46;125.28;;;92.13;;
26201;SDS011;13944;28.562;77.188;2022-09-30T01:05:13;136.98;;;89.95;;
26201;SDS011;13944;28.562;77.188;2022-09-30T01:07:39;125.32;;;90.78;;
26201;SDS011;13944;28.562;77.188;2022-09-30T01:10:06;154.70;;;94.10;;
26201;SDS011;13944;28.562;77.188;2022-09-30T01:12:33;134.50;;;87.07;;
26201;SDS011;13944;28.562;77.188;2022-09-30T01:14:59;127.95;;;87.43;;
26201;SDS011;13944;28.562;77.188;2022-09-30T01:17:42;124.95;;;81.82;;
26201;SDS011;13944;28.562;77.188;2022-09-30T01:30:14;125.93;;;83.18;;
26201;SDS011;13944;28.562;77.188;2022-09-30T01:35:22;145.60;;;93.63;;
26201;SDS011;13944;28.562;77.188;2022-09-30T01:40:24;139.68;;;89.15;;
26201;SDS011;13944;28.562;77.188;2022-09-30T01:42:58;137.45;;;89.00;;
26201;SDS011;13944;28.562;77.188;2022-09-30T01:48:01;142.95;;;97.05;;
26201;SDS011;13944;28.562;77.188;2022-09-30T01:55:54;148.90;;;96.90;;
26201;SDS011;13944;28.562;77.188;2022-09-30T01:58:29;146.35;;;95.20;;
26201;SDS011;13944;28.562;77.188;2022-09-30T02:00:59;145.68;;;95.53;;
26201;SDS011;13944;28.562;77.188;2022-09-30T02:03:30;151.10;;;101.35;;
26201;SDS011;13944;28.562;77.188;2022-09-30T02:06:02;144.48;;;93.03;;
26201;SDS011;13944;28.562;77.188;2022-09-30T02:11:14;173.32;;;107.88;;
26201;SDS011;13944;28.562;77.188;2022-09-30T02:16:23;176.50;;;104.93;;
26201;SDS011;13944;28.562;77.188;2022-09-30T02:18:52;139.48;;;96.93;;
26201;SDS011;13944;28.562;77.188;2022-09-30T02:21:25;171.68;;;107.53;;
26201;SDS011;13944;28.562;77.188;2022-09-30T02:23:54;98.25;;;70.32;;
26201;SDS011;13944;28.562;77.188;2022-09-30T02:26:24;104.40;;;75.05;;
26201;SDS011;13944;28.562;77.188;2022-09-30T02:28:55;114.15;;;88.03;;
26201;SDS011;13944;28.562;77.188;2022-09-30T02:31:28;106.50;;;78.13;;
26201;SDS011;13944;28.562;77.188;2022-09-30T02:34:01;107.70;;;79.07;;
26201;SDS011;13944;28.562;77.188;2022-09-30T02:36:48;97.85;;;70.35;;
26201;SDS011;13944;28.562;77.188;2022-09-30T02:39:32;120.88;;;87.03;;
26201;SDS011;13944;28.562;77.188;2022-09-30T02:42:04;121.30;;;85.85;;
26201;SDS011;13944;28.562;77.188;2022-09-30T02:44:33;111.25;;;82.82;;
26201;SDS011;13944;28.562;77.188;2022-09-30T02:47:08;102.65;;;79.95;;
26201;SDS011;13944;28.562;77.188;2022-09-30T02:52:12;102.30;;;81.50;;
26201;SDS011;13944;28.562;77.188;2022-09-30T02:54:46;110.53;;;84.63;;
26201;SDS011;13944;28.562;77.188;2022-09-30T02:59:53;108.63;;;79.75;;
26201;SDS011;13944;28.562;77.188;2022-09-30T03:02:19;98.22;;;73.88;;
26201;SDS011;13944;28.562;77.188;2022-09-30T03:04:47;118.03;;;83.38;;
26201;SDS011;13944;28.562;77.188;2022-09-30T03:07:14;109.63;;;81.20;;
26201;SDS011;13944;28.562;77.188;2022-09-30T03:09:41;113.28;;;83.00;;
26201;SDS011;13944;28.562;77.188;2022-09-30T03:15:15;119.15;;;83.93;;
26201;SDS011;13944;28.562;77.188;2022-09-30T03:22:57;108.03;;;78.88;;
26201;SDS011;13944;28.562;77.188;2022-09-30T03:28:26;104.93;;;76.20;;
26201;SDS011;13944;28.562;77.188;2022-09-30T03:31:01;97.45;;;74.65;;
26201;SDS011;13944;28.562;77.188;2022-09-30T03:36:00;96.97;;;74.78;;
26201;SDS011;13944;28.562;77.188;2022-09-30T03:41:18;124.78;;;88.50;;
26201;SDS011;13944;28.562;77.188;2022-09-30T03:44:32;121.57;;;93.55;;
26201;SDS011;13944;28.562;77.188;2022-09-30T03:46:45;111.15;;;83.15;;
26201;SDS011;13944;28.562;77.188;2022-09-30T03:49:15;119.35;;;86.60;;
26201;SDS011;13944;28.562;77.188;2022-09-30T03:51:44;111.90;;;85.40;;
26201;SDS011;13944;28.562;77.188;2022-09-30T03:54:11;108.13;;;82.45;;
26201;SDS011;13944;28.562;77.188;2022-09-30T03:56:38;97.45;;;75.88;;
26201;SDS011;13944;28.562;77.188;2022-09-30T03:59:15;94.45;;;76.68;;
26201;SDS011;13944;28.562;77.188;2022-09-30T04:01:43;102.55;;;76.22;;
26201;SDS011;13944;28.562;77.188;2022-09-30T04:04:10;108.90;;;81.70;;
26201;SDS011;13944;28.562;77.188;2022-09-30T04:06:36;101.82;;;79.07;;
26201;SDS011;13944;28.562;77.188;2022-09-30T04:09:03;101.57;;;77.88;;
26201;SDS011;13944;28.562;77.188;2022-09-30T04:11:29;104.22;;;78.20;;
26201;SDS011;13944;28.562;77.188;2022-09-30T04:13:56;110.82;;;81.22;;
26201;SDS011;13944;28.562;77.188;2022-09-30T04:16:22;111.97;;;82.40;;
26201;SDS011;13944;28.562;77.188;2022-09-30T04:18:49;96.55;;;75.60;;
26201;SDS011;13944;28.562;77.188;2022-09-30T04:21:16;110.18;;;83.95;;
26201;SDS011;13944;28.562;77.188;2022-09-30T04:23:42;113.35;;;82.72;;
26201;SDS011;13944;28.562;77.188;2022-09-30T04:26:10;98.63;;;74.90;;
26201;SDS011;13944;28.562;77.188;2022-09-30T04:28:37;107.40;;;81.63;;
26201;SDS011;13944;28.562;77.188;2022-09-30T04:31:04;99.30;;;72.15;;
26201;SDS011;13944;28.562;77.188;2022-09-30T04:33:31;88.88;;;77.45;;
26201;SDS011;13944;28.562;77.188;2022-09-30T04:35:58;95.70;;;75.32;;
26201;SDS011;13944;28.562;77.188;2022-09-30T04:38:25;95.80;;;72.72;;
26201;SDS011;13944;28.562;77.188;2022-09-30T04:40:52;118.28;;;86.20;;
26201;SDS011;13944;28.562;77.188;2022-09-30T04:43:19;110.72;;;78.13;;
26201;SDS011;13944;28.562;77.188;2022-09-30T04:45:49;111.20;;;83.88;;
26201;SDS011;13944;28.562;77.188;2022-09-30T04:48:19;97.13;;;76.63;;
26201;SDS011;13944;28.562;77.188;2022-09-30T04:50:49;105.38;;;81.80;;
26201;SDS011;13944;28.562;77.188;2022-09-30T04:53:16;92.15;;;66.80;;
26201;SDS011;13944;28.562;77.188;2022-09-30T04:55:43;90.68;;;72.40;;
26201;SDS011;13944;28.562;77.188;2022-09-30T04:58:10;100.22;;;78.63;;
26201;SDS011;13944;28.562;77.188;2022-09-30T05:00:37;104.40;;;78.55;;
26201;SDS011;13944;28.562;77.188;2022-09-30T05:03:03;91.35;;;68.03;;
26201;SDS011;13944;28.562;77.188;2022-09-30T05:05:31;95.45;;;74.82;;
26201;SDS011;13944;28.562;77.188;2022-09-30T05:07:58;97.85;;;74.75;;
26201;SDS011;13944;28.562;77.188;2022-09-30T05:10:25;93.95;;;75.97;;
26201;SDS011;13944;28.562;77.188;2022-09-30T05:12:51;86.70;;;66.85;;
26201;SDS011;13944;28.562;77.188;2022-09-30T05:15:18;90.07;;;66.40;;
26201;SDS011;13944;28.562;77.188;2022-09-30T05:17:47;82.22;;;60.75;;
26201;SDS011;13944;28.562;77.188;2022-09-30T05:20:14;80.75;;;63.33;;
26201;SDS011;13944;28.562;77.188;2022-09-30T05:22:40;78.40;;;63.03;;
26201;SDS011;13944;28.562;77.188;2022-09-30T05:25:07;83.10;;;69.18;;
26201;SDS011;13944;28.562;77.188;2022-09-30T05:27:34;90.40;;;72.07;;
26201;SDS011;13944;28.562;77.188;2022-09-30T05:30:00;81.85;;;67.75;;
26201;SDS011;13944;28.562;77.188;2022-09-30T05:32:27;99.22;;;74.63;;
26201;SDS011;13944;28.562;77.188;2022-09-30T05:34:54;83.13;;;67.30;;
26201;SDS011;13944;28.562;77.188;2022-09-30T05:37:20;106.60;;;80.47;;
26201;SDS011;13944;28.562;77.188;2022-09-30T05:39:47;102.30;;;80.70;;
26201;SDS011;13944;28.562;77.188;2022-09-30T05:42:14;95.93;;;72.60;;
26201;SDS011;13944;28.562;77.188;2022-09-30T05:44:41;91.97;;;76.73;;
26201;SDS011;13944;28.562;77.188;2022-09-30T05:47:07;92.30;;;73.45;;
26201;SDS011;13944;28.562;77.188;2022-09-30T05:49:35;81.95;;;65.60;;
26201;SDS011;13944;28.562;77.188;2022-09-30T05:52:02;77.65;;;64.75;;
26201;SDS011;13944;28.562;77.188;2022-09-30T05:54:29;87.45;;;75.78;;
26201;SDS011;13944;28.562;77.188;2022-09-30T05:56:55;88.10;;;70.55;;
26201;SDS011;13944;28.562;77.188;2022-09-30T05:59:22;92.78;;;68.60;;
26201;SDS011;13944;28.562;77.188;2022-09-30T06:01:49;89.20;;;67.28;;
26201;SDS011;13944;28.562;77.188;2022-09-30T06:04:15;89.97;;;78.00;;
26201;SDS011;13944;28.562;77.188;2022-09-30T06:06:42;93.50;;;71.53;;
26201;SDS011;13944;28.562;77.188;2022-09-30T06:09:09;86.68;;;73.97;;
26201;SDS011;13944;28.562;77.188;2022-09-30T06:11:35;87.65;;;69.63;;
26201;SDS011;13944;28.562;77.188;2022-09-30T06:14:02;90.55;;;76.45;;
26201;SDS011;13944;28.562;77.188;2022-09-30T06:16:29;86.05;;;68.35;;
26201;SDS011;13944;28.562;77.188;2022-09-30T06:18:56;80.80;;;66.32;;
26201;SDS011;13944;28.562;77.188;2022-09-30T06:21:23;81.18;;;62.20;;
26201;SDS011;13944;28.562;77.188;2022-09-30T06:23:50;90.80;;;66.72;;
26201;SDS011;13944;28.562;77.188;2022-09-30T06:26:16;83.60;;;68.20;;
26201;SDS011;13944;28.562;77.188;2022-09-30T06:28:43;91.05;;;69.80;;
26201;SDS011;13944;28.562;77.188;2022-09-30T06:31:09;75.32;;;61.10;;
26201;SDS011;13944;28.562;77.188;2022-09-30T06:33:36;79.55;;;64.20;;
26201;SDS011;13944;28.562;77.188;2022-09-30T06:36:03;82.57;;;68.70;;
26201;SDS011;13944;28.562;77.188;2022-09-30T06:38:31;76.80;;;62.53;;
26201;SDS011;13944;28.562;77.188;2022-09-30T06:41:01;76.90;;;61.30;;
26201;SDS011;13944;28.562;77.188;2022-09-30T06:43:28;79.18;;;60.08;;
26201;SDS011;13944;28.562;77.188;2022-09-30T06:45:54;80.82;;;62.75;;
26201;SDS011;13944;28.562;77.188;2022-09-30T06:48:21;83.68;;;65.93;;
26201;SDS011;13944;28.562;77.188;2022-09-30T06:50:48;82.07;;;65.43;;
26201;SDS011;13944;28.562;77.188;2022-09-30T06:53:17;79.30;;;63.35;;
26201;SDS011;13944;28.562;77.188;2022-09-30T06:55:44;80.95;;;63.53;;
26201;SDS011;13944;28.562;77.188;2022-09-30T06:58:14;65.05;;;54.15;;
26201;SDS011;13944;28.562;77.188;2022-09-30T07:00:41;78.00;;;62.08;;
26201;SDS011;13944;28.562;77.188;2022-09-30T07:03:08;77.47;;;62.20;;
26201;SDS011;13944;28.562;77.188;2022-09-30T07:05:43;78.75;;;63.35;;
26201;SDS011;13944;28.562;77.188;2022-09-30T07:08:09;77.40;;;63.50;;
26201;SDS011;13944;28.562;77.188;2022-09-30T07:10:36;76.22;;;60.80;;
26201;SDS011;13944;28.562;77.188;2022-09-30T07:13:03;79.65;;;61.88;;
26201;SDS011;13944;28.562;77.188;2022-09-30T07:15:31;78.13;;;59.95;;
26201;SDS011;13944;28.562;77.188;2022-09-30T07:17:57;89.57;;;64.90;;
26201;SDS011;13944;28.562;77.188;2022-09-30T07:20:24;78.63;;;64.00;;
26201;SDS011;13944;28.562;77.188;2022-09-30T07:22:51;79.68;;;64.47;;
26201;SDS011;13944;28.562;77.188;2022-09-30T07:25:17;82.18;;;67.35;;
26201;SDS011;13944;28.562;77.188;2022-09-30T07:27:44;101.47;;;65.68;;
26201;SDS011;13944;28.562;77.188;2022-09-30T07:30:11;80.10;;;60.92;;
26201;SDS011;13944;28.562;77.188;2022-09-30T07:32:37;78.15;;;62.35;;
26201;SDS011;13944;28.562;77.188;2022-09-30T07:35:04;89.60;;;65.95;;
26201;SDS011;13944;28.562;77.188;2022-09-30T07:37:30;76.70;;;60.45;;
26201;SDS011;13944;28.562;77.188;2022-09-30T07:40:00;73.95;;;59.42;;
26201;SDS011;13944;28.562;77.188;2022-09-30T07:42:27;66.75;;;56.50;;
26201;SDS011;13944;28.562;77.188;2022-09-30T07:44:58;71.32;;;59.30;;
26201;SDS011;13944;28.562;77.188;2022-09-30T07:47:26;64.05;;;52.33;;
26201;SDS011;13944;28.562;77.188;2022-09-30T07:49:52;77.63;;;57.42;;
26201;SDS011;13944;28.562;77.188;2022-09-30T07:52:19;79.22;;;61.40;;
26201;SDS011;13944;28.562;77.188;2022-09-30T07:54:45;67.65;;;57.88;;
26201;SDS011;13944;28.562;77.188;2022-09-30T07:57:12;70.63;;;54.78;;
26201;SDS011;13944;28.562;77.188;2022-09-30T07:59:39;66.13;;;53.55;;
26201;SDS011;13944;28.562;77.188;2022-09-30T08:02:07;78.63;;;56.58;;
26201;SDS011;13944;28.562;77.188;2022-09-30T08:04:36;72.35;;;54.70;;
26201;SDS011;13944;28.562;77.188;2022-09-30T08:07:03;65.95;;;52.97;;
26201;SDS011;13944;28.562;77.188;2022-09-30T08:09:29;71.93;;;57.03;;
26201;SDS011;13944;28.562;77.188;2022-09-30T08:11:56;77.68;;;58.65;;
26201;SDS011;13944;28.562;77.188;2022-09-30T08:14:24;98.25;;;61.83;;
26201;SDS011;13944;28.562;77.188;2022-09-30T08:16:50;75.07;;;55.42;;
26201;SDS011;13944;28.562;77.188;2022-09-30T08:19:19;83.35;;;55.55;;
26201;SDS011;13944;28.562;77.188;2022-09-30T08:21:46;83.32;;;56.28;;
26201;SDS011;13944;28.562;77.188;2022-09-30T08:24:13;71.68;;;54.88;;
26201;SDS011;13944;28.562;77.188;2022-09-30T08:26:40;75.75;;;53.45;;
26201;SDS011;13944;28.562;77.188;2022-09-30T08:29:06;72.63;;;54.03;;
26201;SDS011;13944;28.562;77.188;2022-09-30T08:31:35;70.35;;;53.40;;
26201;SDS011;13944;28.562;77.188;2022-09-30T08:34:01;67.35;;;53.97;;
26201;SDS011;13944;28.562;77.188;2022-09-30T08:36:28;64.13;;;51.25;;
26201;SDS011;13944;28.562;77.188;2022-09-30T08:38:54;66.13;;;47.80;;
26201;SDS011;13944;28.562;77.188;2022-09-30T08:51:50;59.83;;;46.83;;
26201;SDS011;13944;28.562;77.188;2022-09-30T08:54:18;52.03;;;43.80;;
26201;SDS011;13944;28.562;77.188;2022-09-30T08:56:46;55.70;;;44.03;;
26201;SDS011;13944;28.562;77.188;2022-09-30T09:01:46;61.22;;;44.80;;
26201;SDS011;13944;28.562;77.188;2022-09-30T09:04:14;57.78;;;42.05;;
26201;SDS011;13944;28.562;77.188;2022-09-30T09:06:50;54.22;;;41.42;;
26201;SDS011;13944;28.562;77.188;2022-09-30T09:11:56;59.72;;;43.40;;
26201;SDS011;13944;28.562;77.188;2022-09-30T09:14:31;58.20;;;44.47;;
26201;SDS011;13944;28.562;77.188;2022-09-30T09:20:31;55.65;;;40.95;;
26201;SDS011;13944;28.562;77.188;2022-09-30T09:22:31;56.17;;;44.08;;
26201;SDS011;13944;28.562;77.188;2022-09-30T09:24:58;57.70;;;44.67;;
26201;SDS011;13944;28.562;77.188;2022-09-30T09:27:29;63.90;;;44.65;;
26201;SDS011;13944;28.562;77.188;2022-09-30T09:32:31;52.00;;;42.90;;
26201;SDS011;13944;28.562;77.188;2022-09-30T09:43:15;61.63;;;45.65;;
26201;SDS011;13944;28.562;77.188;2022-09-30T09:48:31;56.63;;;43.90;;
26201;SDS011;13944;28.562;77.188;2022-09-30T09:51:19;51.70;;;42.53;;
26201;SDS011;13944;28.562;77.188;2022-09-30T09:53:47;50.60;;;40.92;;
26201;SDS011;13944;28.562;77.188;2022-09-30T09:56:25;51.25;;;38.95;;
26201;SDS011;13944;28.562;77.188;2022-09-30T10:01:31;50.78;;;40.53;;
26201;SDS011;13944;28.562;77.188;2022-09-30T10:12:39;58.17;;;41.78;;
26201;SDS011;13944;28.562;77.188;2022-09-30T10:14:48;53.95;;;42.35;;
26201;SDS011;13944;28.562;77.188;2022-09-30T10:17:21;49.00;;;42.45;;
26201;SDS011;13944;28.562;77.188;2022-09-30T10:19:51;52.90;;;40.28;;
26201;SDS011;13944;28.562;77.188;2022-09-30T10:22:28;54.78;;;42.20;;
26201;SDS011;13944;28.562;77.188;2022-09-30T10:25:08;54.55;;;41.95;;
26201;SDS011;13944;28.562;77.188;2022-09-30T10:27:35;51.70;;;37.97;;
26201;SDS011;13944;28.562;77.188;2022-09-30T10:30:02;61.05;;;41.20;;
26201;SDS011;13944;28.562;77.188;2022-09-30T10:32:28;65.30;;;44.33;;
26201;SDS011;13944;28.562;77.188;2022-09-30T10:34:58;58.92;;;42.85;;
26201;SDS011;13944;28.562;77.188;2022-09-30T10:37:27;56.40;;;40.63;;
26201;SDS011;13944;28.562;77.188;2022-09-30T10:39:57;48.72;;;39.30;;
26201;SDS011;13944;28.562;77.188;2022-09-30T10:42:26;46.88;;;38.13;;
26201;SDS011;13944;28.562;77.188;2022-09-30T10:45:03;51.40;;;39.53;;
26201;SDS011;13944;28.562;77.188;2022-09-30T10:47:34;54.65;;;42.42;;
26201;SDS011;13944;28.562;77.188;2022-09-30T10:50:05;51.35;;;39.92;;
26201;SDS011;13944;28.562;77.188;2022-09-30T10:52:37;59.45;;;43.80;;
26201;SDS011;13944;28.562;77.188;2022-09-30T10:55:30;60.30;;;44.63;;
26201;SDS011;13944;28.562;77.188;2022-09-30T10:57:56;48.55;;;39.28;;
26201;SDS011;13944;28.562;77.188;2022-09-30T11:00:23;45.95;;;37.50;;
26201;SDS011;13944;28.562;77.188;2022-09-30T11:02:59;52.33;;;38.50;;
26201;SDS011;13944;28.562;77.188;2022-09-30T11:05:39;53.00;;;42.63;;
26201;SDS011;13944;28.562;77.188;2022-09-30T11:10:47;56.45;;;41.08;;
26201;SDS011;13944;28.562;77.188;2022-09-30T11:13:36;57.33;;;40.72;;
26201;SDS011;13944;28.562;77.188;2022-09-30T11:20:58;48.38;;;38.65;;
26201;SDS011;13944;28.562;77.188;2022-09-30T11:23:50;55.60;;;38.03;;
26201;SDS011;13944;28.562;77.188;2022-09-30T11:31:30;62.05;;;40.75;;
26201;SDS011;13944;28.562;77.188;2022-09-30T11:36:34;63.80;;;39.83;;
26201;SDS011;13944;28.562;77.188;2022-09-30T11:39:12;56.95;;;40.53;;
26201;SDS011;13944;28.562;77.188;2022-09-30T11:41:48;53.83;;;40.28;;
26201;SDS011;13944;28.562;77.188;2022-09-30T11:44:21;55.67;;;39.00;;
26201;SDS011;13944;28.562;77.188;2022-09-30T11:52:06;53.70;;;38.22;;
26201;SDS011;13944;28.562;77.188;2022-09-30T11:54:39;51.75;;;37.38;;
26201;SDS011;13944;28.562;77.188;2022-09-30T11:57:14;55.00;;;39.75;;
26201;SDS011;13944;28.562;77.188;2022-09-30T11:59:44;61.13;;;41.90;;
26201;SDS011;13944;28.562;77.188;2022-09-30T12:02:33;55.53;;;41.85;;
26201;SDS011;13944;28.562;77.188;2022-09-30T12:05:04;56.30;;;41.83;;
26201;SDS011;13944;28.562;77.188;2022-09-30T12:07:37;54.85;;;39.38;;
26201;SDS011;13944;28.562;77.188;2022-09-30T12:10:27;62.90;;;40.15;;
26201;SDS011;13944;28.562;77.188;2022-09-30T12:12:56;57.67;;;41.28;;
26201;SDS011;13944;28.562;77.188;2022-09-30T12:15:25;52.10;;;41.05;;
26201;SDS011;13944;28.562;77.188;2022-09-30T12:17:54;58.47;;;43.35;;
26201;SDS011;13944;28.562;77.188;2022-09-30T12:22:54;57.10;;;40.17;;
26201;SDS011;13944;28.562;77.188;2022-09-30T12:25:28;62.15;;;43.33;;
26201;SDS011;13944;28.562;77.188;2022-09-30T12:30:46;55.42;;;41.90;;
26201;SDS011;13944;28.562;77.188;2022-09-30T12:36:08;64.15;;;46.05;;
26201;SDS011;13944;28.562;77.188;2022-09-30T12:44:02;60.97;;;47.35;;
26201;SDS011;13944;28.562;77.188;2022-09-30T12:49:20;65.65;;;49.35;;
26201;SDS011;13944;28.562;77.188;2022-09-30T12:51:49;70.47;;;50.33;;
26201;SDS011;13944;28.562;77.188;2022-09-30T12:54:27;71.97;;;49.60;;
26201;SDS011;13944;28.562;77.188;2022-09-30T12:57:01;66.50;;;49.78;;
26201;SDS011;13944;28.562;77.188;2022-09-30T12:59:32;70.07;;;49.05;;
26201;SDS011;13944;28.562;77.188;2022-09-30T13:02:00;75.95;;;50.60;;
26201;SDS011;13944;28.562;77.188;2022-09-30T13:04:35;79.95;;;51.75;;
26201;SDS011;13944;28.562;77.188;2022-09-30T13:07:05;72.07;;;51.83;;
26201;SDS011;13944;28.562;77.188;2022-09-30T13:09:35;71.43;;;53.20;;
26201;SDS011;13944;28.562;77.188;2022-09-30T13:19:42;69.75;;;53.58;;
26201;SDS011;13944;28.562;77.188;2022-09-30T13:27:44;70.03;;;53.65;;
26201;SDS011;13944;28.562;77.188;2022-09-30T13:32:41;78.05;;;58.45;;
26201;SDS011;13944;28.562;77.188;2022-09-30T13:41:01;74.35;;;57.85;;
26201;SDS011;13944;28.562;77.188;2022-09-30T13:43:43;92.68;;;62.08;;
26201;SDS011;13944;28.562;77.188;2022-09-30T13:48:47;86.82;;;60.90;;
26201;SDS011;13944;28.562;77.188;2022-09-30T13:51:14;79.18;;;59.05;;
26201;SDS011;13944;28.562;77.188;2022-09-30T13:53:51;98.75;;;62.97;;
26201;SDS011;13944;28.562;77.188;2022-09-30T13:56:20;82.03;;;59.22;;
26201;SDS011;13944;28.562;77.188;2022-09-30T14:06:36;88.13;;;62.60;;
26201;SDS011;13944;28.562;77.188;2022-09-30T14:09:15;91.85;;;61.50;;
26201;SDS011;13944;28.562;77.188;2022-09-30T14:19:55;81.47;;;64.40;;
26201;SDS011;13944;28.562;77.188;2022-09-30T14:22:24;96.38;;;64.20;;
26201;SDS011;13944;28.562;77.188;2022-09-30T14:24:54;98.30;;;66.75;;
26201;SDS011;13944;28.562;77.188;2022-09-30T14:27:32;91.05;;;66.40;;
26201;SDS011;13944;28.562;77.188;2022-09-30T14:30:08;90.80;;;66.43;;
26201;SDS011;13944;28.562;77.188;2022-09-30T14:35:17;103.43;;;68.10;;
26201;SDS011;13944;28.562;77.188;2022-09-30T14:37:48;98.80;;;67.57;;
26201;SDS011;13944;28.562;77.188;2022-09-30T14:40:17;101.60;;;69.32;;
26201;SDS011;13944;28.562;77.188;2022-09-30T14:42:44;98.18;;;68.10;;
26201;SDS011;13944;28.562;77.188;2022-09-30T14:45:17;99.47;;;69.50;;
26201;SDS011;13944;28.562;77.188;2022-09-30T14:47:45;97.45;;;69.97;;
26201;SDS011;13944;28.562;77.188;2022-09-30T14:50:15;101.25;;;73.30;;
26201;SDS011;13944;28.562;77.188;2022-09-30T14:52:46;100.13;;;73.97;;
26201;SDS011;13944;28.562;77.188;2022-09-30T14:55:26;101.20;;;75.03;;
26201;SDS011;13944;28.562;77.188;2022-09-30T14:57:54;107.35;;;76.68;;
26201;SDS011;13944;28.562;77.188;2022-09-30T15:00:30;102.25;;;74.68;;
26201;SDS011;13944;28.562;77.188;2022-09-30T15:02:57;108.30;;;76.90;;
26201;SDS011;13944;28.562;77.188;2022-09-30T15:05:24;104.10;;;75.30;;
26201;SDS011;13944;28.562;77.188;2022-09-30T15:07:51;107.27;;;77.50;;
26201;SDS011;13944;28.562;77.188;2022-09-30T15:10:20;112.90;;;78.53;;
26201;SDS011;13944;28.562;77.188;2022-09-30T15:12:47;114.43;;;79.45;;
26201;SDS011;13944;28.562;77.188;2022-09-30T15:15:57;105.43;;;77.45;;
26201;SDS011;13944;28.562;77.188;2022-09-30T15:18:23;111.88;;;80.75;;
26201;SDS011;13944;28.562;77.188;2022-09-30T15:20:53;104.78;;;80.13;;
26201;SDS011;13944;28.562;77.188;2022-09-30T15:23:25;114.53;;;80.18;;
26201;SDS011;13944;28.562;77.188;2022-09-30T15:25:52;115.93;;;80.80;;
26201;SDS011;13944;28.562;77.188;2022-09-30T15:28:19;115.13;;;80.85;;
26201;SDS011;13944;28.562;77.188;2022-09-30T15:30:46;106.95;;;79.40;;
26201;SDS011;13944;28.562;77.188;2022-09-30T15:33:15;110.00;;;81.65;;
26201;SDS011;13944;28.562;77.188;2022-09-30T15:35:43;104.03;;;80.47;;
26201;SDS011;13944;28.562;77.188;2022-09-30T15:38:31;108.43;;;79.15;;
26201;SDS011;13944;28.562;77.188;2022-09-30T15:41:02;103.03;;;78.57;;
26201;SDS011;13944;28.562;77.188;2022-09-30T15:43:31;107.25;;;77.05;;
26201;SDS011;13944;28.562;77.188;2022-09-30T15:48:46;104.28;;;77.22;;
26201;SDS011;13944;28.562;77.188;2022-09-30T15:51:23;109.30;;;80.28;;
26201;SDS011;13944;28.562;77.188;2022-09-30T15:53:50;107.82;;;80.57;;
26201;SDS011;13944;28.562;77.188;2022-09-30T15:56:25;110.15;;;79.88;;
26201;SDS011;13944;28.562;77.188;2022-09-30T15:58:56;113.85;;;86.32;;
26201;SDS011;13944;28.562;77.188;2022-09-30T16:12:05;116.43;;;82.85;;
26201;SDS011;13944;28.562;77.188;2022-09-30T16:17:02;107.10;;;81.35;;
26201;SDS011;13944;28.562;77.188;2022-09-30T16:19:30;116.82;;;87.30;;
26201;SDS011;13944;28.562;77.188;2022-09-30T16:21:57;125.95;;;86.85;;
26201;SDS011;13944;28.562;77.188;2022-09-30T16:26:54;121.50;;;87.30;;
26201;SDS011;13944;28.562;77.188;2022-09-30T16:29:21;132.27;;;89.13;;
26201;SDS011;13944;28.562;77.188;2022-09-30T16:31:48;124.25;;;87.47;;
26201;SDS011;13944;28.562;77.188;2022-09-30T16:34:25;128.68;;;89.95;;
26201;SDS011;13944;28.562;77.188;2022-09-30T16:36:53;128.48;;;88.93;;
26201;SDS011;13944;28.562;77.188;2022-09-30T16:39:19;123.43;;;87.22;;
26201;SDS011;13944;28.562;77.188;2022-09-30T16:41:46;128.25;;;87.72;;
26201;SDS011;13944;28.562;77.188;2022-09-30T16:44:14;127.55;;;89.35;;
26201;SDS011;13944;28.562;77.188;2022-09-30T16:46:40;120.40;;;88.72;;
26201;SDS011;13944;28.562;77.188;2022-09-30T16:49:13;123.15;;;88.65;;
26201;SDS011;13944;28.562;77.188;2022-09-30T16:51:41;127.35;;;89.53;;
26201;SDS011;13944;28.562;77.188;2022-09-30T16:54:08;131.70;;;90.15;;
26201;SDS011;13944;28.562;77.188;2022-09-30T16:56:34;122.72;;;90.07;;
26201;SDS011;13944;28.562;77.188;2022-09-30T16:59:01;128.32;;;91.30;;
26201;SDS011;13944;28.562;77.188;2022-09-30T17:01:28;126.18;;;88.03;;
26201;SDS011;13944;28.562;77.188;2022-09-30T17:03:55;117.20;;;89.63;;
26201;SDS011;13944;28.562;77.188;2022-09-30T17:06:28;122.47;;;88.05;;
26201;SDS011;13944;28.562;77.188;2022-09-30T17:08:55;125.57;;;90.40;;
26201;SDS011;13944;28.562;77.188;2022-09-30T17:11:27;116.60;;;89.43;;
26201;SDS011;13944;28.562;77.188;2022-09-30T17:13:55;121.13;;;89.13;;
26201;SDS011;13944;28.562;77.188;2022-09-30T17:16:22;127.53;;;91.28;;
26201;SDS011;13944;28.562;77.188;2022-09-30T17:18:49;119.15;;;90.10;;
26201;SDS011;13944;28.562;77.188;2022-09-30T17:21:16;122.82;;;93.10;;
26201;SDS011;13944;28.562;77.188;2022-09-30T17:23:42;130.75;;;89.95;;
26201;SDS011;13944;28.562;77.188;2022-09-30T17:26:09;128.10;;;91.10;;
26201;SDS011;13944;28.562;77.188;2022-09-30T17:28:35;124.18;;;90.80;;
26201;SDS011;13944;28.562;77.188;2022-09-30T17:31:02;119.43;;;91.30;;
26201;SDS011;13944;28.562;77.188;2022-09-30T17:33:33;121.95;;;89.93;;